sensor_id;sensor_type;location;lat;lon;timestamp;P1;durP1;ratioP1;P2;durP2;ratioP2
77814;SDS011;67002;52.124;21.210;2023-04-03T00:02:54;0.50;;;0.40;;
77814;SDS011;67002;52.124;21.210;2023-04-03T00:06:21;0.50;;;0.40;;
77814;SDS011;67002;52.124;21.210;2023-04-03T00:10:07;0.60;;;0.50;;
77814;SDS011;67002;52.124;21.210;2023-04-03T00:14:12;0.40;;;0.40;;
77814;SDS011;67002;52.124;21.210;2023-04-03T00:17:31;0.40;;;0.40;;
77814;SDS011;67002;52.124;21.210;2023-04-03T00:21:27;0.50;;;0.40;;
77814;SDS011;67002;52.124;21.210;2023-04-03T00:25:06;0.50;;;0.40;;
77814;SDS011;67002;52.124;21.210;2023-04-03T00:28:26;0.40;;;0.30;;
77814;SDS011;67002;52.124;21.210;2023-04-03T00:32:12;0.40;;;0.40;;
77814;SDS011;67002;52.124;21.210;2023-04-03T00:35:43;0.50;;;0.40;;
77814;SDS011;67002;52.124;21.210;2023-04-03T00:39:22;0.60;;;0.50;;
77814;SDS011;67002;52.124;21.210;2023-04-03T00:42:57;0.80;;;0.60;;
77814;SDS011;67002;52.124;21.210;2023-04-03T00:46:40;0.70;;;0.30;;
77814;SDS011;67002;52.124;21.210;2023-04-03T00:50:20;0.60;;;0.60;;
77814;SDS011;67002;52.124;21.210;2023-04-03T00:53:50;0.60;;;0.50;;
77814;SDS011;67002;52.124;21.210;2023-04-03T00:57:25;0.40;;;0.40;;
77814;SDS011;67002;52.124;21.210;2023-04-03T01:01:14;0.60;;;0.50;;
77814;SDS011;67002;52.124;21.210;2023-04-03T01:04:49;0.60;;;0.50;;
77814;SDS011;67002;52.124;21.210;2023-04-03T01:08:43;0.50;;;0.20;;
77814;SDS011;67002;52.124;21.210;2023-04-03T01:12:15;0.40;;;0.40;;
77814;SDS011;67002;52.124;21.210;2023-04-03T01:16:08;1.20;;;0.80;;
77814;SDS011;67002;52.124;21.210;2023-04-03T01:19:28;0.60;;;0.40;;
77814;SDS011;67002;52.124;21.210;2023-04-03T01:23:05;0.50;;;0.50;;
77814;SDS011;67002;52.124;21.210;2023-04-03T01:27:03;0.30;;;0.30;;
77814;SDS011;67002;52.124;21.210;2023-04-03T01:30:43;0.20;;;0.20;;
77814;SDS011;67002;52.124;21.210;2023-04-03T01:34:10;0.50;;;0.50;;
77814;SDS011;67002;52.124;21.210;2023-04-03T01:37:47;0.10;;;0.10;;
77814;SDS011;67002;52.124;21.210;2023-04-03T01:41:33;0.40;;;0.30;;
77814;SDS011;67002;52.124;21.210;2023-04-03T01:45:10;0.50;;;0.40;;
77814;SDS011;67002;52.124;21.210;2023-04-03T01:49:13;0.20;;;0.20;;
77814;SDS011;67002;52.124;21.210;2023-04-03T01:52:32;0.20;;;0.20;;
77814;SDS011;67002;52.124;21.210;2023-04-03T01:56:35;0.30;;;0.30;;
77814;SDS011;67002;52.124;21.210;2023-04-03T02:00:05;0.20;;;0.20;;
77814;SDS011;67002;52.124;21.210;2023-04-03T02:03:32;0.10;;;0.00;;
77814;SDS011;67002;52.124;21.210;2023-04-03T02:07:17;0.30;;;0.30;;
77814;SDS011;67002;52.124;21.210;2023-04-03T02:11:20;0.30;;;0.30;;
77814;SDS011;67002;52.124;21.210;2023-04-03T02:14:37;0.40;;;0.40;;
77814;SDS011;67002;52.124;21.210;2023-04-03T02:18:26;0.30;;;0.30;;
77814;SDS011;67002;52.124;21.210;2023-04-03T02:22:10;0.20;;;0.20;;
77814;SDS011;67002;52.124;21.210;2023-04-03T02:26:13;0.40;;;0.30;;
77814;SDS011;67002;52.124;21.210;2023-04-03T02:29:51;0.90;;;0.60;;
77814;SDS011;67002;52.124;21.210;2023-04-03T02:33:10;0.20;;;0.20;;
77814;SDS011;67002;52.124;21.210;2023-04-03T02:36:56;0.70;;;0.60;;
77814;SDS011;67002;52.124;21.210;2023-04-03T02:40:34;0.70;;;0.20;;
77814;SDS011;67002;52.124;21.210;2023-04-03T02:44:11;0.50;;;0.30;;
77814;SDS011;67002;52.124;21.210;2023-04-03T02:48:04;0.70;;;0.30;;
77814;SDS011;67002;52.124;21.210;2023-04-03T02:51:32;0.40;;;0.30;;
77814;SDS011;67002;52.124;21.210;2023-04-03T02:55:17;0.30;;;0.30;;
77814;SDS011;67002;52.124;21.210;2023-04-03T02:59:12;0.90;;;0.50;;
77814;SDS011;67002;52.124;21.210;2023-04-03T03:02:40;0.70;;;0.40;;
77814;SDS011;67002;52.124;21.210;2023-04-03T03:06:26;0.10;;;0.10;;
77814;SDS011;67002;52.124;21.210;2023-04-03T03:10:04;0.20;;;0.20;;
77814;SDS011;67002;52.124;21.210;2023-04-03T03:13:41;0.60;;;0.50;;
77814;SDS011;67002;52.124;21.210;2023-04-03T03:17:18;0.30;;;0.30;;
77814;SDS011;67002;52.124;21.210;2023-04-03T03:21:01;0.20;;;0.20;;
77814;SDS011;67002;52.124;21.210;2023-04-03T03:24:56;0.80;;;0.50;;
77814;SDS011;67002;52.124;21.210;2023-04-03T03:28:53;0.50;;;0.50;;
77814;SDS011;67002;52.124;21.210;2023-04-03T03:32:11;0.70;;;0.60;;
77814;SDS011;67002;52.124;21.210;2023-04-03T03:36:08;0.30;;;0.30;;
77814;SDS011;67002;52.124;21.210;2023-04-03T03:39:15;0.60;;;0.40;;
77814;SDS011;67002;52.124;21.210;2023-04-03T03:42:58;0.20;;;0.10;;
77814;SDS011;67002;52.124;21.210;2023-04-03T03:46:42;0.50;;;0.40;;
77814;SDS011;67002;52.124;21.210;2023-04-03T03:50:28;0.40;;;0.30;;
77814;SDS011;67002;52.124;21.210;2023-04-03T03:54:04;0.60;;;0.50;;
77814;SDS011;67002;52.124;21.210;2023-04-03T03:57:53;1.20;;;0.30;;
77814;SDS011;67002;52.124;21.210;2023-04-03T04:01:56;0.40;;;0.30;;
77814;SDS011;67002;52.124;21.210;2023-04-03T04:05:07;0.30;;;0.20;;
77814;SDS011;67002;52.124;21.210;2023-04-03T04:08:41;0.20;;;0.20;;
77814;SDS011;67002;52.124;21.210;2023-04-03T04:12:24;0.30;;;0.30;;
77814;SDS011;67002;52.124;21.210;2023-04-03T04:16:09;0.40;;;0.20;;
77814;SDS011;67002;52.124;21.210;2023-04-03T04:19:57;0.40;;;0.40;;
77814;SDS011;67002;52.124;21.210;2023-04-03T04:23:50;0.30;;;0.30;;
77814;SDS011;67002;52.124;21.210;2023-04-03T04:27:10;0.50;;;0.50;;
77814;SDS011;67002;52.124;21.210;2023-04-03T04:30:55;0.40;;;0.40;;
77814;SDS011;67002;52.124;21.210;2023-04-03T04:34:28;0.50;;;0.40;;
77814;SDS011;67002;52.124;21.210;2023-04-03T04:38:06;0.40;;;0.30;;
77814;SDS011;67002;52.124;21.210;2023-04-03T04:41:43;0.50;;;0.50;;
77814;SDS011;67002;52.124;21.210;2023-04-03T04:45:17;0.10;;;0.10;;
77814;SDS011;67002;52.124;21.210;2023-04-03T04:49:00;0.30;;;0.30;;
77814;SDS011;67002;52.124;21.210;2023-04-03T04:52:47;1.30;;;0.70;;
77814;SDS011;67002;52.124;21.210;2023-04-03T04:56:23;0.60;;;0.50;;
77814;SDS011;67002;52.124;21.210;2023-04-03T05:00:11;0.90;;;0.30;;
77814;SDS011;67002;52.124;21.210;2023-04-03T05:04:00;0.50;;;0.40;;
77814;SDS011;67002;52.124;21.210;2023-04-03T05:07:33;0.60;;;0.60;;
77814;SDS011;67002;52.124;21.210;2023-04-03T05:11:19;0.30;;;0.30;;
77814;SDS011;67002;52.124;21.210;2023-04-03T05:14:55;0.30;;;0.30;;
77814;SDS011;67002;52.124;21.210;2023-04-03T05:18:41;0.90;;;0.30;;
77814;SDS011;67002;52.124;21.210;2023-04-03T05:22:19;0.80;;;0.40;;
77814;SDS011;67002;52.124;21.210;2023-04-03T05:25:54;1.70;;;0.50;;
77814;SDS011;67002;52.124;21.210;2023-04-03T05:29:39;0.90;;;0.40;;
77814;SDS011;67002;52.124;21.210;2023-04-03T05:33:26;1.30;;;0.50;;
77814;SDS011;67002;52.124;21.210;2023-04-03T05:37:10;0.60;;;0.40;;
77814;SDS011;67002;52.124;21.210;2023-04-03T05:40:54;0.20;;;0.20;;
77814;SDS011;67002;52.124;21.210;2023-04-03T05:44:57;0.20;;;0.10;;
77814;SDS011;67002;52.124;21.210;2023-04-03T05:48:14;0.50;;;0.30;;
77814;SDS011;67002;52.124;21.210;2023-04-03T05:52:00;0.30;;;0.30;;
77814;SDS011;67002;52.124;21.210;2023-04-03T05:55:36;0.40;;;0.40;;
77814;SDS011;67002;52.124;21.210;2023-04-03T05:59:21;0.60;;;0.50;;
77814;SDS011;67002;52.124;21.210;2023-04-03T06:02:57;0.10;;;0.10;;
77814;SDS011;67002;52.124;21.210;2023-04-03T06:06:46;0.40;;;0.40;;
77814;SDS011;67002;52.124;21.210;2023-04-03T06:10:33;0.40;;;0.40;;
77814;SDS011;67002;52.124;21.210;2023-04-03T06:14:15;0.30;;;0.30;;
77814;SDS011;67002;52.124;21.210;2023-04-03T06:17:58;0.40;;;0.40;;
77814;SDS011;67002;52.124;21.210;2023-04-03T06:21:44;0.70;;;0.50;;
77814;SDS011;67002;52.124;21.210;2023-04-03T06:25:31;0.40;;;0.20;;
77814;SDS011;67002;52.124;21.210;2023-04-03T06:28:58;0.40;;;0.30;;
77814;SDS011;67002;52.124;21.210;2023-04-03T06:32:43;0.50;;;0.30;;
77814;SDS011;67002;52.124;21.210;2023-04-03T06:36:29;0.60;;;0.40;;
77814;SDS011;67002;52.124;21.210;2023-04-03T06:40:09;0.30;;;0.30;;
77814;SDS011;67002;52.124;21.210;2023-04-03T06:43:57;0.60;;;0.50;;
77814;SDS011;67002;52.124;21.210;2023-04-03T06:47:42;0.30;;;0.30;;
77814;SDS011;67002;52.124;21.210;2023-04-03T06:51:30;0.50;;;0.40;;
77814;SDS011;67002;52.124;21.210;2023-04-03T06:54:57;0.60;;;0.60;;
77814;SDS011;67002;52.124;21.210;2023-04-03T06:58:42;0.60;;;0.50;;
77814;SDS011;67002;52.124;21.210;2023-04-03T07:02:49;0.40;;;0.40;;
77814;SDS011;67002;52.124;21.210;2023-04-03T07:06:02;0.60;;;0.60;;
77814;SDS011;67002;52.124;21.210;2023-04-03T07:09:58;0.30;;;0.30;;
77814;SDS011;67002;52.124;21.210;2023-04-03T07:13:26;1.00;;;0.50;;
77814;SDS011;67002;52.124;21.210;2023-04-03T07:17:10;1.90;;;0.70;;
77814;SDS011;67002;52.124;21.210;2023-04-03T07:20:55;0.50;;;0.50;;
77814;SDS011;67002;52.124;21.210;2023-04-03T07:25:17;0.60;;;0.60;;
77814;SDS011;67002;52.124;21.210;2023-04-03T07:29:10;0.40;;;0.40;;
77814;SDS011;67002;52.124;21.210;2023-04-03T07:32:58;0.50;;;0.50;;
77814;SDS011;67002;52.124;21.210;2023-04-03T07:36:17;0.50;;;0.40;;
77814;SDS011;67002;52.124;21.210;2023-04-03T07:40:04;0.20;;;0.10;;
77814;SDS011;67002;52.124;21.210;2023-04-03T07:43:51;0.70;;;0.70;;
77814;SDS011;67002;52.124;21.210;2023-04-03T07:47:30;0.40;;;0.20;;
77814;SDS011;67002;52.124;21.210;2023-04-03T07:51:05;0.60;;;0.50;;
77814;SDS011;67002;52.124;21.210;2023-04-03T07:54:48;0.60;;;0.50;;
77814;SDS011;67002;52.124;21.210;2023-04-03T07:59:01;2.90;;;2.10;;
77814;SDS011;67002;52.124;21.210;2023-04-03T08:02:09;2.70;;;2.00;;
77814;SDS011;67002;52.124;21.210;2023-04-03T08:06:15;1.00;;;0.80;;
77814;SDS011;67002;52.124;21.210;2023-04-03T08:09:49;0.70;;;0.60;;
77814;SDS011;67002;52.124;21.210;2023-04-03T08:13:08;0.80;;;0.40;;
77814;SDS011;67002;52.124;21.210;2023-04-03T08:16:51;0.70;;;0.50;;
77814;SDS011;67002;52.124;21.210;2023-04-03T08:20:34;0.60;;;0.50;;
77814;SDS011;67002;52.124;21.210;2023-04-03T08:24:16;0.70;;;0.40;;
77814;SDS011;67002;52.124;21.210;2023-04-03T08:28:20;0.90;;;0.40;;
77814;SDS011;67002;52.124;21.210;2023-04-03T08:31:49;0.60;;;0.50;;
77814;SDS011;67002;52.124;21.210;2023-04-03T08:35:26;0.90;;;0.60;;
77814;SDS011;67002;52.124;21.210;2023-04-03T08:38:55;0.40;;;0.40;;
77814;SDS011;67002;52.124;21.210;2023-04-03T08:42:59;0.80;;;0.60;;
77814;SDS011;67002;52.124;21.210;2023-04-03T08:46:40;0.70;;;0.70;;
77814;SDS011;67002;52.124;21.210;2023-04-03T08:49:53;0.40;;;0.40;;
77814;SDS011;67002;52.124;21.210;2023-04-03T08:53:44;0.40;;;0.20;;
77814;SDS011;67002;52.124;21.210;2023-04-03T08:57:19;0.40;;;0.40;;
77814;SDS011;67002;52.124;21.210;2023-04-03T09:00:57;0.20;;;0.20;;
77814;SDS011;67002;52.124;21.210;2023-04-03T09:04:37;0.50;;;0.50;;
77814;SDS011;67002;52.124;21.210;2023-04-03T09:08:11;0.80;;;0.50;;
77814;SDS011;67002;52.124;21.210;2023-04-03T09:12:03;0.20;;;0.10;;
77814;SDS011;67002;52.124;21.210;2023-04-03T09:16:16;0.40;;;0.30;;
77814;SDS011;67002;52.124;21.210;2023-04-03T09:19:54;0.40;;;0.20;;
77814;SDS011;67002;52.124;21.210;2023-04-03T09:23:17;0.50;;;0.30;;
77814;SDS011;67002;52.124;21.210;2023-04-03T09:27:04;0.50;;;0.50;;
77814;SDS011;67002;52.124;21.210;2023-04-03T09:30:27;0.60;;;0.60;;
77814;SDS011;67002;52.124;21.210;2023-04-03T09:34:13;0.40;;;0.40;;
77814;SDS011;67002;52.124;21.210;2023-04-03T09:37:40;2.10;;;0.40;;
77814;SDS011;67002;52.124;21.210;2023-04-03T09:41:35;0.30;;;0.30;;
77814;SDS011;67002;52.124;21.210;2023-04-03T09:45:21;0.50;;;0.50;;
77814;SDS011;67002;52.124;21.210;2023-04-03T09:48:52;0.30;;;0.30;;
77814;SDS011;67002;52.124;21.210;2023-04-03T09:52:22;0.20;;;0.20;;
77814;SDS011;67002;52.124;21.210;2023-04-03T09:56:05;0.30;;;0.30;;
77814;SDS011;67002;52.124;21.210;2023-04-03T09:59:25;0.20;;;0.20;;
77814;SDS011;67002;52.124;21.210;2023-04-03T10:03:20;0.40;;;0.40;;
77814;SDS011;67002;52.124;21.210;2023-04-03T10:07:30;0.60;;;0.50;;
77814;SDS011;67002;52.124;21.210;2023-04-03T10:10:47;0.40;;;0.40;;
77814;SDS011;67002;52.124;21.210;2023-04-03T10:14:55;0.50;;;0.30;;
77814;SDS011;67002;52.124;21.210;2023-04-03T10:18:41;0.30;;;0.30;;
77814;SDS011;67002;52.124;21.210;2023-04-03T10:22:48;0.30;;;0.30;;
77814;SDS011;67002;52.124;21.210;2023-04-03T10:26:29;0.50;;;0.40;;
77814;SDS011;67002;52.124;21.210;2023-04-03T10:29:42;0.40;;;0.40;;
77814;SDS011;67002;52.124;21.210;2023-04-03T10:33:57;0.20;;;0.20;;
77814;SDS011;67002;52.124;21.210;2023-04-03T10:37:27;0.30;;;0.30;;
77814;SDS011;67002;52.124;21.210;2023-04-03T10:40:50;0.30;;;0.30;;
77814;SDS011;67002;52.124;21.210;2023-04-03T10:45:00;0.40;;;0.30;;
77814;SDS011;67002;52.124;21.210;2023-04-03T10:48:25;0.60;;;0.60;;
77814;SDS011;67002;52.124;21.210;2023-04-03T10:51:41;0.50;;;0.50;;
77814;SDS011;67002;52.124;21.210;2023-04-03T10:55:30;0.30;;;0.20;;
77814;SDS011;67002;52.124;21.210;2023-04-03T10:59:18;0.50;;;0.40;;
77814;SDS011;67002;52.124;21.210;2023-04-03T11:03:11;0.30;;;0.30;;
77814;SDS011;67002;52.124;21.210;2023-04-03T11:06:44;0.30;;;0.30;;
77814;SDS011;67002;52.124;21.210;2023-04-03T11:10:51;0.50;;;0.40;;
77814;SDS011;67002;52.124;21.210;2023-04-03T11:14:11;0.70;;;0.50;;
77814;SDS011;67002;52.124;21.210;2023-04-03T11:17:58;0.40;;;0.40;;
77814;SDS011;67002;52.124;21.210;2023-04-03T11:21:43;0.30;;;0.30;;
77814;SDS011;67002;52.124;21.210;2023-04-03T11:25:49;0.50;;;0.50;;
77814;SDS011;67002;52.124;21.210;2023-04-03T11:29:08;0.40;;;0.40;;
77814;SDS011;67002;52.124;21.210;2023-04-03T11:32:48;0.20;;;0.20;;
77814;SDS011;67002;52.124;21.210;2023-04-03T11:36:41;0.40;;;0.40;;
77814;SDS011;67002;52.124;21.210;2023-04-03T11:40:21;0.70;;;0.60;;
77814;SDS011;67002;52.124;21.210;2023-04-03T11:44:29;0.30;;;0.30;;
77814;SDS011;67002;52.124;21.210;2023-04-03T11:47:44;0.30;;;0.30;;
77814;SDS011;67002;52.124;21.210;2023-04-03T11:51:40;0.40;;;0.40;;
77814;SDS011;67002;52.124;21.210;2023-04-03T11:59:24;0.40;;;0.40;;
77814;SDS011;67002;52.124;21.210;2023-04-03T12:02:37;0.60;;;0.60;;
77814;SDS011;67002;52.124;21.210;2023-04-03T12:09:58;0.20;;;0.20;;
77814;SDS011;67002;52.124;21.210;2023-04-03T12:13:33;0.50;;;0.40;;
77814;SDS011;67002;52.124;21.210;2023-04-03T12:17:25;0.30;;;0.30;;
77814;SDS011;67002;52.124;21.210;2023-04-03T12:20:53;0.40;;;0.40;;
77814;SDS011;67002;52.124;21.210;2023-04-03T12:24:27;0.10;;;0.10;;
77814;SDS011;67002;52.124;21.210;2023-04-03T12:27:47;0.50;;;0.40;;
77814;SDS011;67002;52.124;21.210;2023-04-03T12:32:04;0.40;;;0.40;;
77814;SDS011;67002;52.124;21.210;2023-04-03T12:35:21;0.50;;;0.40;;
77814;SDS011;67002;52.124;21.210;2023-04-03T12:39:22;0.20;;;0.20;;
77814;SDS011;67002;52.124;21.210;2023-04-03T12:43:30;0.30;;;0.30;;
77814;SDS011;67002;52.124;21.210;2023-04-03T12:46:32;0.70;;;0.40;;
77814;SDS011;67002;52.124;21.210;2023-04-03T12:50:22;0.30;;;0.20;;
77814;SDS011;67002;52.124;21.210;2023-04-03T12:54:00;0.20;;;0.20;;
77814;SDS011;67002;52.124;21.210;2023-04-03T12:57:37;0.50;;;0.30;;
77814;SDS011;67002;52.124;21.210;2023-04-03T13:01:20;0.80;;;0.30;;
77814;SDS011;67002;52.124;21.210;2023-04-03T13:04:34;0.80;;;0.30;;
77814;SDS011;67002;52.124;21.210;2023-04-03T13:08:40;0.30;;;0.30;;
77814;SDS011;67002;52.124;21.210;2023-04-03T13:12:17;0.20;;;0.20;;
77814;SDS011;67002;52.124;21.210;2023-04-03T13:15:41;0.20;;;0.20;;
77814;SDS011;67002;52.124;21.210;2023-04-03T13:19:17;0.40;;;0.20;;
77814;SDS011;67002;52.124;21.210;2023-04-03T13:22:57;0.90;;;0.70;;
77814;SDS011;67002;52.124;21.210;2023-04-03T13:26:30;0.40;;;0.30;;
77814;SDS011;67002;52.124;21.210;2023-04-03T13:30:20;0.50;;;0.30;;
77814;SDS011;67002;52.124;21.210;2023-04-03T13:33:55;0.40;;;0.30;;
77814;SDS011;67002;52.124;21.210;2023-04-03T13:38:06;0.40;;;0.40;;
77814;SDS011;67002;52.124;21.210;2023-04-03T13:41:25;0.30;;;0.30;;
77814;SDS011;67002;52.124;21.210;2023-04-03T13:45:16;0.60;;;0.60;;
77814;SDS011;67002;52.124;21.210;2023-04-03T13:49:09;0.40;;;0.30;;
77814;SDS011;67002;52.124;21.210;2023-04-03T13:53:12;0.60;;;0.60;;
77814;SDS011;67002;52.124;21.210;2023-04-03T13:56:39;0.30;;;0.30;;
77814;SDS011;67002;52.124;21.210;2023-04-03T14:00:31;0.20;;;0.10;;
77814;SDS011;67002;52.124;21.210;2023-04-03T14:04:09;0.30;;;0.20;;
77814;SDS011;67002;52.124;21.210;2023-04-03T14:07:40;0.40;;;0.30;;
77814;SDS011;67002;52.124;21.210;2023-04-03T14:11:37;0.30;;;0.30;;
77814;SDS011;67002;52.124;21.210;2023-04-03T14:15:15;0.30;;;0.30;;
77814;SDS011;67002;52.124;21.210;2023-04-03T14:18:33;0.10;;;0.10;;
77814;SDS011;67002;52.124;21.210;2023-04-03T14:22:20;0.40;;;0.30;;
77814;SDS011;67002;52.124;21.210;2023-04-03T14:26:04;0.20;;;0.20;;
77814;SDS011;67002;52.124;21.210;2023-04-03T14:29:53;0.30;;;0.30;;
77814;SDS011;67002;52.124;21.210;2023-04-03T14:33:27;0.70;;;0.50;;
77814;SDS011;67002;52.124;21.210;2023-04-03T14:37:20;0.60;;;0.30;;
77814;SDS011;67002;52.124;21.210;2023-04-03T14:41:01;0.30;;;0.30;;
77814;SDS011;67002;52.124;21.210;2023-04-03T14:44:41;0.50;;;0.50;;
77814;SDS011;67002;52.124;21.210;2023-04-03T14:48:10;0.30;;;0.10;;
77814;SDS011;67002;52.124;21.210;2023-04-03T14:51:59;0.30;;;0.20;;
77814;SDS011;67002;52.124;21.210;2023-04-03T14:55:45;1.80;;;0.70;;
77814;SDS011;67002;52.124;21.210;2023-04-03T14:59:22;0.80;;;0.40;;
77814;SDS011;67002;52.124;21.210;2023-04-03T15:03:36;0.40;;;0.40;;
77814;SDS011;67002;52.124;21.210;2023-04-03T15:07:10;0.60;;;0.50;;
77814;SDS011;67002;52.124;21.210;2023-04-03T15:10:28;0.30;;;0.30;;
77814;SDS011;67002;52.124;21.210;2023-04-03T15:14:12;0.70;;;0.20;;
77814;SDS011;67002;52.124;21.210;2023-04-03T15:18:27;0.30;;;0.30;;
77814;SDS011;67002;52.124;21.210;2023-04-03T15:21:54;0.50;;;0.50;;
77814;SDS011;67002;52.124;21.210;2023-04-03T15:26:00;0.60;;;0.60;;
77814;SDS011;67002;52.124;21.210;2023-04-03T15:29:17;0.80;;;0.50;;
77814;SDS011;67002;52.124;21.210;2023-04-03T15:32:53;0.60;;;0.50;;
77814;SDS011;67002;52.124;21.210;2023-04-03T15:36:36;1.10;;;0.60;;
77814;SDS011;67002;52.124;21.210;2023-04-03T15:40:24;0.60;;;0.50;;
77814;SDS011;67002;52.124;21.210;2023-04-03T15:44:18;0.80;;;0.70;;
77814;SDS011;67002;52.124;21.210;2023-04-03T15:47:40;0.60;;;0.50;;
77814;SDS011;67002;52.124;21.210;2023-04-03T15:51:33;0.30;;;0.30;;
77814;SDS011;67002;52.124;21.210;2023-04-03T15:54:55;0.80;;;0.60;;
77814;SDS011;67002;52.124;21.210;2023-04-03T15:58:33;0.40;;;0.40;;
77814;SDS011;67002;52.124;21.210;2023-04-03T16:02:36;0.90;;;0.50;;
77814;SDS011;67002;52.124;21.210;2023-04-03T16:05:45;2.00;;;0.90;;
77814;SDS011;67002;52.124;21.210;2023-04-03T16:09:32;0.50;;;0.50;;
77814;SDS011;67002;52.124;21.210;2023-04-03T16:13:20;0.40;;;0.40;;
77814;SDS011;67002;52.124;21.210;2023-04-03T16:16:48;1.50;;;0.70;;
77814;SDS011;67002;52.124;21.210;2023-04-03T16:20:16;0.70;;;0.50;;
77814;SDS011;67002;52.124;21.210;2023-04-03T16:24:06;0.50;;;0.50;;
77814;SDS011;67002;52.124;21.210;2023-04-03T16:27:42;0.60;;;0.60;;
77814;SDS011;67002;52.124;21.210;2023-04-03T16:31:17;0.80;;;0.80;;
77814;SDS011;67002;52.124;21.210;2023-04-03T16:35:12;0.60;;;0.50;;
77814;SDS011;67002;52.124;21.210;2023-04-03T16:38:39;1.10;;;1.00;;
77814;SDS011;67002;52.124;21.210;2023-04-03T16:42:24;0.50;;;0.40;;
77814;SDS011;67002;52.124;21.210;2023-04-03T16:46:07;0.60;;;0.60;;
77814;SDS011;67002;52.124;21.210;2023-04-03T16:49:49;0.50;;;0.50;;
77814;SDS011;67002;52.124;21.210;2023-04-03T16:53:34;1.20;;;1.00;;
77814;SDS011;67002;52.124;21.210;2023-04-03T16:57:19;0.50;;;0.50;;
77814;SDS011;67002;52.124;21.210;2023-04-03T17:01:22;0.60;;;0.60;;
77814;SDS011;67002;52.124;21.210;2023-04-03T17:04:42;0.70;;;0.70;;
77814;SDS011;67002;52.124;21.210;2023-04-03T17:08:26;1.10;;;0.70;;
77814;SDS011;67002;52.124;21.210;2023-04-03T17:11:54;1.30;;;1.00;;
77814;SDS011;67002;52.124;21.210;2023-04-03T17:15:39;0.80;;;0.70;;
77814;SDS011;67002;52.124;21.210;2023-04-03T17:19:23;0.70;;;0.60;;
77814;SDS011;67002;52.124;21.210;2023-04-03T17:23:06;1.20;;;1.00;;
77814;SDS011;67002;52.124;21.210;2023-04-03T17:27:02;0.60;;;0.60;;
77814;SDS011;67002;52.124;21.210;2023-04-03T17:30:29;1.40;;;1.10;;
77814;SDS011;67002;52.124;21.210;2023-04-03T17:34:34;0.70;;;0.70;;
77814;SDS011;67002;52.124;21.210;2023-04-03T17:38:11;1.70;;;1.30;;
77814;SDS011;67002;52.124;21.210;2023-04-03T17:41:39;1.80;;;1.60;;
77814;SDS011;67002;52.124;21.210;2023-04-03T17:45:08;1.20;;;1.10;;
77814;SDS011;67002;52.124;21.210;2023-04-03T17:49:04;1.50;;;1.20;;
77814;SDS011;67002;52.124;21.210;2023-04-03T17:52:23;1.30;;;1.10;;
77814;SDS011;67002;52.124;21.210;2023-04-03T17:56:27;1.00;;;0.80;;
77814;SDS011;67002;52.124;21.210;2023-04-03T17:59:56;1.40;;;1.10;;
77814;SDS011;67002;52.124;21.210;2023-04-03T18:03:19;1.20;;;1.00;;
77814;SDS011;67002;52.124;21.210;2023-04-03T18:07:03;2.30;;;1.50;;
77814;SDS011;67002;52.124;21.210;2023-04-03T18:10:39;2.40;;;1.80;;
77814;SDS011;67002;52.124;21.210;2023-04-03T18:14:09;1.90;;;1.60;;
77814;SDS011;67002;52.124;21.210;2023-04-03T18:18:13;2.60;;;1.90;;
77814;SDS011;67002;52.124;21.210;2023-04-03T18:21:31;2.20;;;1.70;;
77814;SDS011;67002;52.124;21.210;2023-04-03T18:25:16;3.10;;;1.60;;
77814;SDS011;67002;52.124;21.210;2023-04-03T18:29:11;2.50;;;1.70;;
77814;SDS011;67002;52.124;21.210;2023-04-03T18:32:38;2.90;;;2.20;;
77814;SDS011;67002;52.124;21.210;2023-04-03T18:36:23;2.00;;;1.60;;
77814;SDS011;67002;52.124;21.210;2023-04-03T18:40:12;2.50;;;1.90;;
77814;SDS011;67002;52.124;21.210;2023-04-03T18:44:05;2.60;;;2.10;;
77814;SDS011;67002;52.124;21.210;2023-04-03T18:47:23;2.90;;;1.80;;
77814;SDS011;67002;52.124;21.210;2023-04-03T18:51:19;1.70;;;1.30;;
77814;SDS011;67002;52.124;21.210;2023-04-03T18:55:08;2.00;;;1.50;;
77814;SDS011;67002;52.124;21.210;2023-04-03T18:58:47;1.60;;;1.10;;
77814;SDS011;67002;52.124;21.210;2023-04-03T19:02:10;1.60;;;1.40;;
77814;SDS011;67002;52.124;21.210;2023-04-03T19:05:59;1.60;;;1.50;;
77814;SDS011;67002;52.124;21.210;2023-04-03T19:09:34;1.00;;;0.90;;
77814;SDS011;67002;52.124;21.210;2023-04-03T19:12:56;1.20;;;1.10;;
77814;SDS011;67002;52.124;21.210;2023-04-03T19:16:34;1.00;;;1.00;;
77814;SDS011;67002;52.124;21.210;2023-04-03T19:20:30;1.30;;;1.00;;
77814;SDS011;67002;52.124;21.210;2023-04-03T19:24:17;1.70;;;1.30;;
77814;SDS011;67002;52.124;21.210;2023-04-03T19:27:45;1.20;;;1.10;;
77814;SDS011;67002;52.124;21.210;2023-04-03T19:31:01;2.00;;;1.20;;
77814;SDS011;67002;52.124;21.210;2023-04-03T19:35:08;2.20;;;1.20;;
77814;SDS011;67002;52.124;21.210;2023-04-03T19:38:57;1.40;;;1.20;;
77814;SDS011;67002;52.124;21.210;2023-04-03T19:42:33;1.40;;;1.10;;
77814;SDS011;67002;52.124;21.210;2023-04-03T19:45:59;1.50;;;0.90;;
77814;SDS011;67002;52.124;21.210;2023-04-03T19:49:18;1.50;;;1.20;;
77814;SDS011;67002;52.124;21.210;2023-04-03T19:53:03;1.40;;;1.20;;
77814;SDS011;67002;52.124;21.210;2023-04-03T19:56:50;2.20;;;1.50;;
77814;SDS011;67002;52.124;21.210;2023-04-03T20:00:54;1.60;;;1.30;;
77814;SDS011;67002;52.124;21.210;2023-04-03T20:04:10;2.10;;;1.50;;
77814;SDS011;67002;52.124;21.210;2023-04-03T20:08:16;1.80;;;1.30;;
77814;SDS011;67002;52.124;21.210;2023-04-03T20:12:02;1.40;;;1.30;;
77814;SDS011;67002;52.124;21.210;2023-04-03T20:15:11;1.90;;;1.40;;
77814;SDS011;67002;52.124;21.210;2023-04-03T20:18:56;1.80;;;1.30;;
77814;SDS011;67002;52.124;21.210;2023-04-03T20:22:55;1.90;;;1.40;;
77814;SDS011;67002;52.124;21.210;2023-04-03T20:26:20;1.40;;;1.20;;
77814;SDS011;67002;52.124;21.210;2023-04-03T20:30:09;1.70;;;1.40;;
77814;SDS011;67002;52.124;21.210;2023-04-03T20:33:46;0.70;;;0.70;;
77814;SDS011;67002;52.124;21.210;2023-04-03T20:37:23;1.30;;;1.10;;
77814;SDS011;67002;52.124;21.210;2023-04-03T20:41:09;1.00;;;0.90;;
77814;SDS011;67002;52.124;21.210;2023-04-03T20:44:46;1.00;;;0.80;;
77814;SDS011;67002;52.124;21.210;2023-04-03T20:48:40;0.80;;;0.80;;
77814;SDS011;67002;52.124;21.210;2023-04-03T20:52:25;1.10;;;1.00;;
77814;SDS011;67002;52.124;21.210;2023-04-03T20:55:56;1.30;;;1.10;;
77814;SDS011;67002;52.124;21.210;2023-04-03T20:59:23;1.60;;;1.30;;
77814;SDS011;67002;52.124;21.210;2023-04-03T21:03:07;1.10;;;1.00;;
77814;SDS011;67002;52.124;21.210;2023-04-03T21:21:26;0.70;;;0.70;;
77814;SDS011;67002;52.124;21.210;2023-04-03T21:25:04;1.40;;;1.20;;
77814;SDS011;67002;52.124;21.210;2023-04-03T21:29:12;1.60;;;1.20;;
77814;SDS011;67002;52.124;21.210;2023-04-03T21:32:27;1.80;;;1.30;;
77814;SDS011;67002;52.124;21.210;2023-04-03T21:36:12;1.70;;;1.30;;
77814;SDS011;67002;52.124;21.210;2023-04-03T21:40:14;2.20;;;1.50;;
77814;SDS011;67002;52.124;21.210;2023-04-03T21:43:54;1.40;;;1.10;;
77814;SDS011;67002;52.124;21.210;2023-04-03T21:47:12;1.50;;;1.10;;
77814;SDS011;67002;52.124;21.210;2023-04-03T21:51:03;2.90;;;1.20;;
77814;SDS011;67002;52.124;21.210;2023-04-03T21:54:47;1.50;;;1.20;;
77814;SDS011;67002;52.124;21.210;2023-04-03T21:58:32;1.30;;;1.00;;
77814;SDS011;67002;52.124;21.210;2023-04-03T22:02:43;1.80;;;1.20;;
77814;SDS011;67002;52.124;21.210;2023-04-03T22:06:12;1.70;;;1.30;;
77814;SDS011;67002;52.124;21.210;2023-04-03T22:09:30;1.10;;;1.00;;
77814;SDS011;67002;52.124;21.210;2023-04-03T22:13:15;2.10;;;1.40;;